Messwerte Saint-Louis

Temperatur

Temperatur
°C
1574211600 1.00 1.00 24
1574215200 2.00 2.00 24
1574218800 3.00 3.00 23
1574222400 4.00 4.00
1574226000 5.00 5.00
1574229600 6.00 6.00 22
1574233200 7.00 7.00 22
1574236800 8.00 8.00 21
1574240400 9.00 9.00 24
1574244000 10.00 10.00 26
1574247600 11.00 11.00 28
1574251200 12.00 12.00
1574254800 13.00 13.00 32
1574258400 14.00 14.00
1574262000 15.00 15.00 34
1574265600 16.00 16.00 32
1574269200 17.00 17.00 30
1574272800 18.00 18.00 28
1574276400 19.00 19.00 24
1574280000 20.00 20.00 23
1574283600 21.00 21.00 23
1574287200 22.00 22.00 22
1574290800 23.00 23.00
1574294400 0.00 0.00 22

Aktuellste Messwerte

Wettercharakter
Wetter: meist klar
Temperatur
22 °C
Feuchtigkeit
65 %
Wind
10 km/hWindrichtung: Nord
Luftdruck
1014 hPa
Messzeit: 21. November 2019, 0.00Datenquelle: METAR

Weitere Messstationen in der Nähe

Messstation Temperatur Entfernung
Linguere - 156 km
Diourbel - 160 km
Podor - 163 km
Dakar - 192 km
Kaolack - 219 km
Banjul 23 °C 321 km
Matam - 338 km

Wind

Windrichtung Böen Mittelwind
° km/h km/h
1574211600 1.00 0.00 - 1.00 20° 5
1574215200 2.00 1.00 - 2.00 50° 10
1574218800 3.00 2.00 - 3.00 20° 5
1574222400 4.00 3.00 - 4.00
1574226000 5.00 4.00 - 5.00
1574229600 6.00 5.00 - 6.00 20° 5
1574233200 7.00 6.00 - 7.00 50° 5
1574236800 8.00 7.00 - 8.00 20° 5
1574240400 9.00 8.00 - 9.00 20° 10
1574244000 10.00 9.00 - 10.00 40° 5
1574247600 11.00 10.00 - 11.00 20° 10
1574251200 12.00 11.00 - 12.00
1574254800 13.00 12.00 - 13.00 40° 15
1574258400 14.00 13.00 - 14.00
1574262000 15.00 14.00 - 15.00 20° 15
1574265600 16.00 15.00 - 16.00 320° 10
1574269200 17.00 16.00 - 17.00 340° 10
1574272800 18.00 17.00 - 18.00 340° 10
1574276400 19.00 18.00 - 19.00 330° 5
1574280000 20.00 19.00 - 20.00 340° 5
1574283600 21.00 20.00 - 21.00 360° 5
1574287200 22.00 21.00 - 22.00 360° 5
1574290800 23.00 22.00 - 23.00 360° 15
1574294400 0.00 23.00 - 0.00 360° 10

Ihre Wetterstation

Fehlt Ihre Wetterstation auf unserem Portal?

Schreiben Sie an network@meteonews.ch

Klima

Wann ist es am wärmsten? Wann regnet es am wenigsten? Unsere Klimadaten geben Auskunft.